Time;durP1;ratioP1;P1;durP2;ratioP2;P2;SDS_P1;SDS_P2;PMS_P1;PMS_P2;Temp;Humidity;BMP_temperature;BMP_pressure;BME280_temperature;BME280_humidity;BME280_pressure;Samples;Min_cycle;Max_cycle;Signal;HPM_P1;HPM_P2
2022/05/24 00:02:17;;;;;;;1.02;0.98;;;;;;;16.84;67.52;98801.91;4974777;28;20054;-69
2022/05/24 00:04:47;;;;;;;1.65;0.95;;;;;;;16.81;67.23;98802.00;4974714;28;20063;-69
2022/05/24 00:07:21;;;;;;;1.02;1.02;;;;;;;16.87;66.61;98799.19;4957895;28;20074;-70
2022/05/24 00:10:02;;;;;;;0.90;0.90;;;;;;;16.89;66.91;98802.56;4975022;28;20069;-69
2022/05/24 00:12:31;;;;;;;2.40;0.50;;;;;;;16.94;66.97;98810.91;4974605;28;20062;-70
2022/05/24 00:17:50;;;;;;;0.82;0.70;;;;;;;16.98;67.22;98799.59;4974669;28;20110;-69
2022/05/24 00:20:32;;;;;;;3.95;1.50;;;;;;;16.94;67.44;98803.19;4974668;28;20058;-70
2022/05/24 00:23:04;;;;;;;0.85;0.85;;;;;;;16.83;68.28;98805.38;4973531;28;20051;-69
2022/05/24 00:25:35;;;;;;;0.77;0.77;;;;;;;16.79;67.40;98806.41;4957618;28;20472;-70
2022/05/24 00:28:11;;;;;;;0.60;0.60;;;;;;;16.64;64.28;98776.06;4974584;28;20101;-70
2022/05/24 00:30:41;;;;;;;0.63;0.63;;;;;;;16.86;62.64;98801.84;4974906;28;20054;-70
2022/05/24 00:33:10;;;;;;;0.50;0.50;;;;;;;16.87;61.77;98799.19;4975112;28;20047;-70
2022/05/24 00:35:44;;;;;;;0.90;0.87;;;;;;;16.85;62.43;98805.28;4974752;28;20078;-70
2022/05/24 00:38:17;;;;;;;0.98;0.88;;;;;;;16.85;61.80;98811.28;4974796;28;20449;-69
2022/05/24 00:43:54;;;;;;;1.02;0.80;;;;;;;16.85;60.09;98816.44;4968501;28;20043;-70
2022/05/24 00:46:40;;;;;;;0.85;0.82;;;;;;;16.82;60.30;98819.13;4973922;28;20054;-69
2022/05/24 00:49:38;;;;;;;0.80;0.80;;;;;;;16.81;60.44;98820.06;4974388;28;20168;-70
2022/05/24 00:52:15;;;;;;;0.77;0.75;;;;;;;16.78;60.54;98817.59;4974379;28;20141;-70
2022/05/24 00:54:51;;;;;;;2.05;1.25;;;;;;;16.88;60.53;98821.50;4974204;28;20571;-69
2022/05/24 00:57:38;;;;;;;0.50;0.50;;;;;;;16.95;60.26;98820.34;4974360;28;20083;-69
2022/05/24 01:00:20;;;;;;;0.73;0.73;;;;;;;16.99;60.28;98819.31;4974328;28;20054;-69
2022/05/24 01:02:49;;;;;;;0.52;0.52;;;;;;;16.81;60.40;98777.97;4972916;28;20054;-70
2022/05/24 01:05:21;;;;;;;0.73;0.73;;;;;;;17.09;59.56;98820.63;4974702;28;20145;-69
2022/05/24 01:07:58;;;;;;;1.15;0.95;;;;;;;17.10;58.91;98822.31;4978262;28;20055;-68
2022/05/24 01:10:34;;;;;;;0.70;0.70;;;;;;;17.14;58.71;98823.84;4977741;28;20055;-70
2022/05/24 01:13:09;;;;;;;0.70;0.70;;;;;;;17.19;58.28;98827.09;4977838;28;20055;-69
2022/05/24 01:15:39;;;;;;;0.50;0.50;;;;;;;17.15;58.99;98825.53;4977627;28;20054;-68
2022/05/24 01:18:25;;;;;;;0.98;0.88;;;;;;;17.07;60.62;98832.75;4960709;28;20072;-69
2022/05/24 01:21:11;;;;;;;0.60;0.60;;;;;;;16.96;61.86;98827.19;4977611;28;20070;-68
2022/05/24 01:24:09;;;;;;;0.60;0.60;;;;;;;16.83;62.89;98825.97;4977514;28;20051;-69
2022/05/24 01:26:49;;;;;;;0.57;0.57;;;;;;;16.73;63.62;98833.25;4976595;28;20052;-70
2022/05/24 01:29:21;;;;;;;0.80;0.80;;;;;;;16.70;64.13;98840.22;4977515;28;20109;-70
2022/05/24 01:37:20;;;;;;;0.73;0.73;;;;;;;16.43;65.99;98836.13;4412979;23;20060;-69
2022/05/24 01:39:55;;;;;;;0.70;0.70;;;;;;;16.41;65.59;98836.16;4939205;29;20107;-69
2022/05/24 01:42:38;;;;;;;0.70;0.68;;;;;;;16.47;65.57;98829.94;4938810;29;20063;-68
2022/05/24 01:45:17;;;;;;;0.60;0.60;;;;;;;16.48;65.65;98829.06;4939108;29;20413;-69
2022/05/24 01:48:14;;;;;;;0.60;0.60;;;;;;;16.40;65.15;98828.50;4938707;29;20059;-69
2022/05/24 01:50:45;;;;;;;0.85;0.80;;;;;;;16.41;65.12;98832.78;4938695;29;20511;-70
2022/05/24 01:53:19;;;;;;;1.50;0.75;;;;;;;16.19;65.13;98804.41;4938669;29;20079;-69
2022/05/24 01:55:51;;;;;;;1.00;0.90;;;;;;;16.29;64.45;98830.66;4938640;29;20069;-69
2022/05/24 01:58:36;;;;;;;0.90;0.90;;;;;;;16.33;64.27;98821.91;4938789;29;20047;-68
2022/05/24 02:01:10;;;;;;;1.45;0.90;;;;;;;16.25;64.69;98834.22;4938865;29;20051;-70
2022/05/24 02:03:39;;;;;;;0.50;0.50;;;;;;;16.13;63.90;98844.97;4938654;29;20441;-69
2022/05/24 02:06:23;;;;;;;1.00;0.80;;;;;;;16.17;63.98;98841.41;4938330;29;20055;-68
2022/05/24 02:09:02;;;;;;;0.70;0.70;;;;;;;16.23;63.90;98830.88;4938323;29;20083;-69
2022/05/24 02:11:33;;;;;;;1.15;1.10;;;;;;;16.26;64.16;98841.06;4938339;29;20056;-69
2022/05/24 02:14:11;;;;;;;0.95;0.90;;;;;;;16.17;64.39;98842.25;4938596;29;20391;-68
2022/05/24 02:16:48;;;;;;;0.40;0.40;;;;;;;16.18;64.53;98837.94;4938577;29;20059;-67
2022/05/24 02:19:19;;;;;;;0.50;0.50;;;;;;;16.17;64.56;98828.53;4937549;29;20057;-67
2022/05/24 02:21:55;;;;;;;0.50;0.50;;;;;;;16.04;64.86;98800.69;4938463;29;20055;-67
2022/05/24 02:24:27;;;;;;;0.70;0.70;;;;;;;16.18;65.09;98817.31;4938003;29;20048;-69
2022/05/24 02:26:59;;;;;;;1.05;0.95;;;;;;;16.21;66.10;98807.78;4921090;29;20063;-69
2022/05/24 02:29:33;;;;;;;1.45;1.13;;;;;;;16.20;66.09;98807.81;4937941;29;20051;-68
2022/05/24 02:32:02;;;;;;;0.68;0.68;;;;;;;16.16;65.84;98798.53;4937840;29;20056;-67
2022/05/24 02:34:31;;;;;;;0.85;0.80;;;;;;;16.10;64.88;98800.44;4938434;29;20067;-69
2022/05/24 02:37:15;;;;;;;0.90;0.90;;;;;;;15.99;64.96;98781.97;4937405;29;20086;-67
2022/05/24 02:42:22;;;;;;;0.98;0.98;;;;;;;15.83;63.98;98798.88;4937923;29;20480;-72
2022/05/24 02:44:53;;;;;;;0.60;0.60;;;;;;;15.80;64.65;98793.00;4937363;29;20052;-70
2022/05/24 02:47:22;;;;;;;0.63;0.63;;;;;;;15.75;64.76;98793.16;4937942;29;20501;-70
2022/05/24 02:49:51;;;;;;;1.63;1.50;;;;;;;15.75;65.18;98787.16;4938060;29;20048;-70
2022/05/24 02:52:23;;;;;;;0.95;0.82;;;;;;;15.77;65.24;98785.38;4937525;29;20290;-68
2022/05/24 02:54:56;;;;;;;0.70;0.70;;;;;;;15.76;65.65;98792.28;4937452;29;20490;-70
2022/05/24 02:57:26;;;;;;;0.73;0.68;;;;;;;15.73;65.28;98810.41;4937252;29;20095;-67
2022/05/24 02:59:56;;;;;;;1.23;1.13;;;;;;;15.69;65.45;98806.22;4936379;29;20110;-70
2022/05/24 03:02:39;;;;;;;0.70;0.70;;;;;;;15.72;65.66;98792.41;4920668;29;20446;-70
2022/05/24 03:05:13;;;;;;;0.93;0.73;;;;;;;15.76;66.09;98794.84;4937062;29;20048;-69
2022/05/24 03:10:47;;;;;;;8.18;1.13;;;;;;;15.81;65.74;98803.22;4936930;29;20052;-69
2022/05/24 03:15:50;;;;;;;0.98;0.90;;;;;;;15.91;64.89;98794.28;4937342;29;20052;-70
2022/05/24 03:21:05;;;;;;;0.95;0.73;;;;;;;15.94;65.03;98794.19;4936697;29;20055;-66
2022/05/24 03:23:37;;;;;;;0.77;0.75;;;;;;;15.88;64.71;98778.94;4936804;29;20099;-69
2022/05/24 03:26:06;;;;;;;0.55;0.55;;;;;;;16.05;64.38;98802.34;4937201;29;20122;-70
2022/05/24 03:28:35;;;;;;;0.75;0.75;;;;;;;16.10;64.22;98795.28;4936816;29;20047;-70
2022/05/24 03:31:07;;;;;;;0.70;0.70;;;;;;;15.89;63.47;98756.63;4936913;29;20388;-68
2022/05/24 03:34:02;;;;;;;0.65;0.65;;;;;;;16.14;63.32;98795.19;4936982;29;20059;-67
2022/05/24 03:36:31;;;;;;;0.70;0.70;;;;;;;16.14;63.09;98797.75;4936548;29;20064;-68
2022/05/24 03:39:19;;;;;;;0.60;0.60;;;;;;;16.25;63.18;98803.31;4935668;29;20119;-69
2022/05/24 03:41:47;;;;;;;2.78;0.75;;;;;;;16.24;63.39;98799.09;4936695;29;20078;-66
2022/05/24 03:44:24;;;;;;;0.50;0.50;;;;;;;16.26;63.51;98800.72;4936844;29;20048;-69
2022/05/24 03:47:05;;;;;;;0.60;0.60;;;;;;;16.26;63.12;98795.56;4936586;29;20526;-66
2022/05/24 03:49:34;;;;;;;0.93;0.68;;;;;;;16.32;63.30;98799.63;4936561;29;20066;-68
2022/05/24 03:52:03;;;;;;;0.50;0.50;;;;;;;16.36;62.88;98796.06;4936437;29;20055;-68
2022/05/24 03:54:38;;;;;;;10.73;1.48;;;;;;;16.46;63.44;98807.69;4936396;29;20373;-68
2022/05/24 03:59:55;;;;;;;0.40;0.40;;;;;;;16.53;63.77;98807.41;4936533;29;20062;-69
2022/05/24 04:02:46;;;;;;;0.77;0.77;;;;;;;16.51;64.74;98821.19;4936455;29;20047;-70
2022/05/24 04:05:29;;;;;;;0.60;0.60;;;;;;;16.46;63.38;98818.00;4936572;29;20044;-66
2022/05/24 04:08:02;;;;;;;0.65;0.65;;;;;;;16.45;61.91;98831.75;4936719;29;20528;-67
2022/05/24 04:10:44;;;;;;;0.60;0.60;;;;;;;16.50;61.51;98835.84;4936308;29;20524;-66
2022/05/24 04:13:15;;;;;;;0.98;0.68;;;;;;;16.49;62.95;98841.88;4936236;29;20058;-67
2022/05/24 04:15:48;;;;;;;0.60;0.60;;;;;;;16.45;63.08;98852.38;4936629;29;20051;-68
2022/05/24 04:18:31;;;;;;;1.48;0.75;;;;;;;16.52;63.07;98859.84;4936204;29;20055;-68
2022/05/24 04:21:12;;;;;;;0.68;0.68;;;;;;;16.54;64.89;98868.34;4936078;29;20130;-67
2022/05/24 04:23:43;;;;;;;0.47;0.47;;;;;;;16.42;66.80;98871.34;4936367;29;20059;-66
2022/05/24 04:26:12;;;;;;;0.80;0.80;;;;;;;16.25;68.17;98871.13;4936315;29;20150;-66
2022/05/24 04:28:50;;;;;;;;;;;;;;;16.16;68.76;98886.91;4936422;29;20089;-68
2022/05/24 04:31:28;;;;;;;0.43;0.43;;;;;;;16.10;69.82;98892.25;4936354;29;19996;-65
2022/05/24 04:34:02;;;;;;;0.65;0.65;;;;;;;16.00;70.16;98902.03;4936110;29;20107;-68
2022/05/24 04:36:34;;;;;;;0.50;0.50;;;;;;;15.90;70.72;98889.56;4935915;29;20048;-67
2022/05/24 04:39:25;;;;;;;1.23;1.13;;;;;;;16.06;70.92;98908.72;4936406;29;20536;-67
2022/05/24 04:44:39;;;;;;;0.60;0.60;;;;;;;15.96;71.28;98923.66;4939678;29;20055;-68
2022/05/24 04:47:18;;;;;;;0.45;0.45;;;;;;;15.99;71.17;98931.28;4939859;29;20067;-69
2022/05/24 04:50:01;;;;;;;0.63;0.63;;;;;;;16.01;70.54;98929.47;4939796;29;20055;-68
2022/05/24 04:52:33;;;;;;;1.95;0.70;;;;;;;16.04;70.82;98924.22;4939694;29;20487;-67
2022/05/24 04:55:04;;;;;;;1.45;0.95;;;;;;;16.01;71.31;98929.47;4939478;29;20138;-68
2022/05/24 04:57:34;;;;;;;0.80;0.80;;;;;;;16.04;71.11;98924.22;4939429;29;20063;-70
2022/05/24 05:00:13;;;;;;;0.63;0.60;;;;;;;16.13;71.18;98930.78;4939545;29;20114;-69
2022/05/24 05:02:44;;;;;;;0.50;0.50;;;;;;;16.08;71.76;98936.09;4938963;29;20052;-69
2022/05/24 05:05:15;;;;;;;3.70;0.63;;;;;;;16.10;72.33;98931.72;4939299;29;20040;-68
2022/05/24 05:07:51;;;;;;;1.38;0.80;;;;;;;16.07;72.00;98924.13;4939585;29;20107;-68
2022/05/24 05:10:23;;;;;;;1.67;0.70;;;;;;;16.05;70.28;98936.19;4939356;29;20044;-68
2022/05/24 05:12:58;;;;;;;0.70;0.70;;;;;;;15.88;69.68;98897.31;4939625;29;20138;-67
2022/05/24 05:15:26;;;;;;;0.82;0.82;;;;;;;16.18;69.07;98931.47;4939527;29;20446;-67
2022/05/24 05:18:03;;;;;;;1.48;1.35;;;;;;;16.25;69.28;98932.06;4939375;29;20044;-68
2022/05/24 05:20:41;;;;;;;1.08;0.90;;;;;;;16.33;69.09;98935.22;4938995;29;20063;-67
2022/05/24 05:23:13;;;;;;;0.68;0.65;;;;;;;16.41;69.65;98939.19;4939319;29;20502;-68
2022/05/24 05:25:47;;;;;;;0.80;0.80;;;;;;;16.35;69.72;98936.00;4939016;29;20047;-70
2022/05/24 05:28:16;;;;;;;0.77;0.77;;;;;;;16.29;68.90;98949.13;4938987;29;20497;-68
2022/05/24 05:33:37;;;;;;;0.45;0.45;;;;;;;16.15;66.23;98962.44;4938974;29;20111;-68
2022/05/24 05:36:21;;;;;;;0.60;0.60;;;;;;;16.15;65.18;98965.03;4938928;29;20055;-68
2022/05/24 05:38:53;;;;;;;0.80;0.80;;;;;;;16.15;64.76;98964.22;4938627;29;20071;-70
2022/05/24 05:41:28;;;;;;;0.70;0.70;;;;;;;16.06;64.53;98965.34;4938782;29;20099;-68
2022/05/24 05:44:06;;;;;;;0.80;0.80;;;;;;;15.97;64.60;98961.38;4939350;29;20064;-69
2022/05/24 05:46:36;;;;;;;1.02;1.00;;;;;;;16.00;65.37;98963.81;4938801;29;20072;-68
2022/05/24 05:49:05;;;;;;;0.70;0.70;;;;;;;15.98;65.49;98963.03;4938313;29;20048;-67
2022/05/24 05:51:35;;;;;;;0.82;0.82;;;;;;;16.02;65.36;98967.22;4938345;29;20062;-69
2022/05/24 05:54:05;;;;;;;0.75;0.75;;;;;;;16.05;64.97;98969.66;4937712;29;20087;-68
2022/05/24 05:56:34;;;;;;;0.55;0.55;;;;;;;16.05;66.05;98969.66;4938367;29;20139;-68
2022/05/24 05:59:03;;;;;;;0.83;0.83;;;;;;;16.15;66.40;98987.38;4938289;29;20600;-68
2022/05/24 06:01:32;;;;;;;1.73;1.15;;;;;;;16.25;66.82;98973.28;4938577;29;20799;-69
2022/05/24 06:04:02;;;;;;;1.23;1.02;;;;;;;16.21;67.49;98982.00;4938223;29;20131;-69
2022/05/24 06:06:45;;;;;;;0.60;0.60;;;;;;;16.01;67.63;98936.34;4938242;29;20048;-68
2022/05/24 06:09:14;;;;;;;0.50;0.50;;;;;;;16.29;68.18;98980.84;4938629;29;20375;-69
2022/05/24 06:11:44;;;;;;;;;;;;;;;16.32;68.56;98985.03;4938423;29;20059;-69
2022/05/24 06:14:13;;;;;;;0.85;0.68;;;;;;;16.38;67.91;98990.84;4938083;29;20368;-69
2022/05/24 06:17:02;;;;;;;0.50;0.50;;;;;;;16.39;67.29;98989.06;4938158;29;20059;-69
2022/05/24 06:19:34;;;;;;;0.55;0.55;;;;;;;16.48;67.25;99001.66;4937995;29;20048;-69
2022/05/24 06:22:06;;;;;;;0.43;0.43;;;;;;;16.53;66.66;99004.94;4938189;29;20497;-68
2022/05/24 06:24:35;;;;;;;0.60;0.60;;;;;;;16.51;66.09;98996.38;4937934;29;20047;-67
2022/05/24 06:27:04;;;;;;;0.80;0.60;;;;;;;16.59;66.15;98999.56;4937805;29;20055;-68
2022/05/24 06:29:33;;;;;;;;;;;;;;;16.65;66.94;99004.50;4938184;29;20054;-69
2022/05/24 06:32:03;;;;;;;1.55;1.35;;;;;;;16.62;66.57;99004.63;4938032;29;19934;-68
2022/05/24 06:34:32;;;;;;;0.70;0.60;;;;;;;16.67;65.99;99002.72;4938080;29;20522;-69
2022/05/24 06:37:01;;;;;;;1.17;0.88;;;;;;;16.64;65.79;99002.81;4937397;29;20573;-68
2022/05/24 06:39:31;;;;;;;0.70;0.70;;;;;;;16.64;65.31;99002.81;4937659;29;20502;-67
2022/05/24 06:42:02;;;;;;;0.57;0.57;;;;;;;16.64;65.03;99007.97;4936682;29;20055;-66
2022/05/24 06:44:34;;;;;;;0.50;0.50;;;;;;;16.73;65.19;99005.91;4937100;29;20498;-67
2022/05/24 06:47:05;;;;;;;0.40;0.40;;;;;;;16.70;64.74;99008.56;4947563;29;20059;-66
2022/05/24 06:49:37;;;;;;;3.78;1.85;;;;;;;16.74;64.15;99017.06;4955618;29;20106;-68
2022/05/24 06:52:11;;;;;;;0.57;0.57;;;;;;;16.62;63.63;99009.78;4948274;29;20111;-66
2022/05/24 06:54:51;;;;;;;1.25;1.15;;;;;;;16.75;63.92;99018.72;4919062;29;20114;-66
2022/05/24 06:57:22;;;;;;;0.63;0.63;;;;;;;16.86;65.37;99021.75;4937146;29;20055;-66
2022/05/24 07:02:34;;;;;;;1.27;1.13;;;;;;;16.52;65.16;98949.16;4936886;29;20429;-69
2022/05/24 07:05:06;;;;;;;0.68;0.68;;;;;;;16.84;65.50;98995.22;4936224;29;20052;-66
2022/05/24 07:07:37;;;;;;;0.75;0.70;;;;;;;16.91;65.77;99006.97;4936514;29;20494;-67
2022/05/24 07:10:15;;;;;;;0.68;0.60;;;;;;;16.93;65.60;99002.59;4919615;29;20085;-66
2022/05/24 07:12:46;;;;;;;0.65;0.65;;;;;;;16.89;65.80;98992.47;4936541;29;20126;-66
2022/05/24 07:15:16;;;;;;;0.60;0.60;;;;;;;17.11;65.97;99009.63;4935533;29;20054;-66
2022/05/24 07:17:46;;;;;;;0.60;0.60;;;;;;;17.05;65.53;98998.72;4936098;29;20062;-68
2022/05/24 07:20:18;;;;;;;0.50;0.50;;;;;;;17.13;65.51;99012.97;4936194;29;20062;-66
2022/05/24 07:22:49;;;;;;;0.70;0.70;;;;;;;17.18;65.07;99016.22;4936206;29;20091;-67
2022/05/24 07:25:20;;;;;;;0.90;0.75;;;;;;;17.11;64.62;98999.31;4936253;29;20138;-67
2022/05/24 07:27:50;;;;;;;0.55;0.55;;;;;;;17.16;64.17;99023.19;4936142;29;20114;-65
2022/05/24 07:30:22;;;;;;;0.70;0.70;;;;;;;17.08;63.70;99029.53;4936357;29;20514;-67
2022/05/24 07:32:51;;;;;;;0.85;0.85;;;;;;;17.07;63.74;99033.84;4936284;29;20143;-66
2022/05/24 07:35:24;;;;;;;0.70;0.70;;;;;;;17.03;63.43;99031.44;4936016;29;20052;-67
2022/05/24 07:37:55;;;;;;;0.75;0.75;;;;;;;17.04;63.08;99033.97;4902585;29;20055;-65
2022/05/24 07:45:51;;;;;;;0.73;0.73;;;;;;;17.07;62.87;99026.13;4936272;29;20126;-67
2022/05/24 07:48:21;;;;;;;0.50;0.50;;;;;;;17.03;63.18;99021.13;4935544;29;20059;-66
2022/05/24 07:50:52;;;;;;;0.60;0.60;;;;;;;16.05;63.30;98873.59;4919352;29;20134;-67
2022/05/24 07:53:23;;;;;;;0.70;0.70;;;;;;;16.96;63.41;99020.53;4935563;29;20106;-66
2022/05/24 07:55:54;;;;;;;0.60;0.60;;;;;;;16.98;63.65;99023.91;4936377;29;20398;-67
2022/05/24 07:58:25;;;;;;;0.98;0.77;;;;;;;17.05;64.14;99029.66;4935131;29;20106;-67
2022/05/24 08:00:57;;;;;;;0.70;0.70;;;;;;;17.05;63.98;99027.91;4935245;29;20059;-67
2022/05/24 08:03:30;;;;;;;1.15;0.93;;;;;;;17.05;63.51;99029.66;4935330;29;20052;-66
2022/05/24 08:06:00;;;;;;;1.10;0.70;;;;;;;16.93;63.72;99024.94;4935918;29;20135;-67
2022/05/24 08:08:30;;;;;;;0.60;0.60;;;;;;;16.98;63.71;99029.06;4918221;29;20055;-66
2022/05/24 08:11:01;;;;;;;1.25;1.08;;;;;;;16.94;63.70;99027.47;4935874;29;20055;-66
2022/05/24 08:13:30;;;;;;;0.75;0.75;;;;;;;16.95;63.69;99029.16;4935523;29;20047;-65
2022/05/24 08:15:59;;;;;;;1.13;0.70;;;;;;;17.00;63.60;99024.66;4935335;29;20134;-67
2022/05/24 08:18:28;;;;;;;0.80;0.80;;;;;;;17.04;63.38;99025.38;4935455;29;20134;-66
2022/05/24 08:20:59;;;;;;;1.23;1.13;;;;;;;17.04;63.70;99026.22;4935762;29;20134;-66
2022/05/24 08:23:28;;;;;;;;;;;;;;;17.03;63.78;99029.72;4935561;29;20051;-66
2022/05/24 08:25:57;;;;;;;1.05;0.95;;;;;;;16.96;63.94;99020.53;4935731;29;19929;-66
2022/05/24 08:28:29;;;;;;;0.95;0.80;;;;;;;16.99;64.26;99020.41;4935032;29;20052;-66
2022/05/24 08:31:01;;;;;;;0.63;0.63;;;;;;;17.03;64.08;99016.84;4935928;29;20048;-67
2022/05/24 08:33:31;;;;;;;0.63;0.63;;;;;;;17.12;64.48;99016.47;4935086;29;20453;-65
2022/05/24 08:36:00;;;;;;;0.60;0.60;;;;;;;17.22;64.21;99017.81;4935636;29;20044;-66
2022/05/24 08:38:31;;;;;;;0.60;0.60;;;;;;;17.27;63.79;99018.47;4934876;29;20056;-67
2022/05/24 08:41:02;;;;;;;0.60;0.60;;;;;;;17.34;63.52;99017.34;4935802;29;20160;-64
2022/05/24 08:43:51;;;;;;;0.65;0.65;;;;;;;17.41;63.22;99013.63;4935040;29;20063;-65
2022/05/24 08:49:14;;;;;;;0.52;0.52;;;;;;;17.41;63.07;99003.31;4934869;29;20059;-65
2022/05/24 08:51:54;;;;;;;0.70;0.70;;;;;;;17.49;63.36;99012.47;4936124;29;20098;-68
2022/05/24 08:54:37;;;;;;;0.47;0.47;;;;;;;17.64;63.36;99009.31;4934923;29;20044;-66
2022/05/24 08:57:09;;;;;;;1.00;0.90;;;;;;;17.77;62.87;99015.66;4935773;29;20099;-66
2022/05/24 08:59:45;;;;;;;0.60;0.60;;;;;;;17.71;62.69;99015.91;4935015;29;20083;-70
2022/05/24 09:02:15;;;;;;;0.52;0.52;;;;;;;17.59;62.74;99011.25;4935739;29;20438;-66
2022/05/24 09:04:44;;;;;;;0.88;0.88;;;;;;;17.64;62.93;99004.16;4934983;29;20062;-67
2022/05/24 09:07:21;;;;;;;0.77;0.77;;;;;;;17.62;62.85;99000.78;4935525;29;20131;-67
2022/05/24 09:09:58;;;;;;;0.52;0.52;;;;;;;17.57;62.71;99007.88;4935000;29;20126;-67
2022/05/24 09:12:53;;;;;;;0.65;0.65;;;;;;;17.53;62.77;99003.75;4936000;29;20062;-66
2022/05/24 09:15:31;;;;;;;0.63;0.63;;;;;;;17.57;63.05;99013.03;4934708;29;20051;-66
2022/05/24 09:18:14;;;;;;;0.85;0.77;;;;;;;17.59;63.40;99011.25;4935547;29;20059;-67
2022/05/24 09:20:45;;;;;;;0.60;0.60;;;;;;;17.51;63.42;99008.09;4935080;29;20071;-66
2022/05/24 09:23:21;;;;;;;0.98;0.88;;;;;;;17.50;63.71;99008.97;4935450;29;20052;-67
2022/05/24 09:26:00;;;;;;;1.08;0.98;;;;;;;17.46;63.90;99010.88;4935120;29;20048;-67
2022/05/24 09:28:44;;;;;;;0.63;0.55;;;;;;;17.38;64.31;99003.41;4937766;29;20107;-68
2022/05/24 09:31:20;;;;;;;0.77;0.77;;;;;;;17.33;64.39;99013.06;4938813;29;20051;-68
2022/05/24 09:33:56;;;;;;;0.73;0.73;;;;;;;17.45;64.49;99004.00;4938141;29;20087;-68
2022/05/24 09:36:36;;;;;;;0.45;0.45;;;;;;;17.44;64.69;99003.16;4938466;29;20051;-67
2022/05/24 09:39:21;;;;;;;0.77;0.77;;;;;;;17.53;64.73;99004.59;4936580;29;20127;-67
2022/05/24 09:41:58;;;;;;;0.70;0.70;;;;;;;17.58;64.30;99009.56;4938617;29;20063;-67
2022/05/24 09:44:29;;;;;;;0.80;0.80;;;;;;;17.55;64.56;99012.25;4937650;29;20506;-66
2022/05/24 09:46:58;;;;;;;0.73;0.73;;;;;;;17.55;64.70;99009.69;4938695;29;20052;-67
2022/05/24 09:49:32;;;;;;;1.25;1.20;;;;;;;17.58;64.53;99022.47;4937773;29;20350;-66
2022/05/24 09:52:12;;;;;;;0.60;0.60;;;;;;;17.61;64.90;99015.44;4937529;29;20052;-67
2022/05/24 09:54:55;;;;;;;;;;;;;;;17.66;64.78;99021.25;4937697;29;20055;-67
2022/05/24 09:57:28;;;;;;;0.60;0.60;;;;;;;17.70;64.75;99029.72;4937864;29;19973;-67
2022/05/24 10:00:08;;;;;;;0.82;0.82;;;;;;;17.78;64.90;99022.53;4936897;29;20043;-68
2022/05/24 10:02:39;;;;;;;0.80;0.70;;;;;;;17.58;64.81;98988.91;4938561;29;20119;-68
2022/05/24 10:05:24;;;;;;;0.73;0.73;;;;;;;17.92;64.64;99027.97;4937668;29;20059;-67
2022/05/24 10:08:00;;;;;;;0.73;0.73;;;;;;;18.08;64.67;99031.59;4938191;29;20055;-67
2022/05/24 10:10:34;;;;;;;0.85;0.85;;;;;;;18.15;64.72;99033.00;4937735;29;20520;-68
2022/05/24 10:13:11;;;;;;;0.80;0.80;;;;;;;18.21;64.57;99027.56;4938072;29;20051;-68
2022/05/24 10:15:50;;;;;;;0.77;0.77;;;;;;;18.29;64.23;99020.34;4937571;29;20138;-67
2022/05/24 10:18:38;;;;;;;0.77;0.77;;;;;;;18.55;64.12;99022.69;4937920;29;20134;-67
2022/05/24 10:21:18;;;;;;;0.55;0.55;;;;;;;18.83;63.94;99017.16;4937684;29;20056;-67
2022/05/24 10:23:55;;;;;;;1.15;0.90;;;;;;;18.90;63.23;99005.63;4936993;29;20060;-67
2022/05/24 10:26:41;;;;;;;0.70;0.70;;;;;;;18.85;62.27;99019.66;4938084;29;20052;-67
2022/05/24 10:29:19;;;;;;;0.80;0.80;;;;;;;18.64;62.19;99024.88;4919690;29;20063;-67
2022/05/24 10:31:54;;;;;;;1.70;0.80;;;;;;;18.58;62.18;99021.72;4937734;29;20055;-67
2022/05/24 10:40:23;;;;;;;0.57;0.57;;;;;;;18.95;62.36;99013.19;4936348;29;20413;-67
2022/05/24 10:43:11;;;;;;;1.13;1.02;;;;;;;19.23;61.61;99005.81;4937292;29;20048;-68
2022/05/24 10:48:36;;;;;;;0.50;0.50;;;;;;;19.93;60.98;99004.16;4936254;29;20047;-67
2022/05/24 10:51:13;;;;;;;0.95;0.90;;;;;;;20.08;60.50;99004.31;4936954;29;20056;-67
2022/05/24 10:54:02;;;;;;;1.10;1.00;;;;;;;20.37;61.38;99008.91;4937196;29;20056;-68
2022/05/24 10:56:38;;;;;;;1.33;1.23;;;;;;;20.55;59.49;98997.56;4935624;29;20084;-68
2022/05/24 10:59:14;;;;;;;0.73;0.73;;;;;;;20.71;58.53;99019.16;4936657;29;20055;-70
2022/05/24 11:01:51;;;;;;;1.15;0.82;;;;;;;20.91;58.30;99013.78;4937183;29;20078;-70
2022/05/24 11:04:25;;;;;;;0.60;0.60;;;;;;;20.91;58.48;99010.34;4936365;29;20059;-70
2022/05/24 11:07:01;;;;;;;2.70;1.30;;;;;;;20.79;58.36;99011.84;4936149;29;20070;-69
2022/05/24 11:09:35;;;;;;;0.68;0.68;;;;;;;20.84;58.23;99004.66;4936067;29;20146;-70
2022/05/24 11:12:08;;;;;;;0.50;0.50;;;;;;;20.95;57.78;99002.31;4937395;29;20110;-70
2022/05/24 11:14:42;;;;;;;1.13;0.77;;;;;;;21.32;58.38;98996.84;4936347;29;20414;-68
2022/05/24 11:17:13;;;;;;;1.00;0.70;;;;;;;21.55;57.60;98986.91;4937403;29;20505;-69
2022/05/24 11:19:49;;;;;;;0.68;0.68;;;;;;;21.66;56.08;98984.56;4950715;29;20138;-70
2022/05/24 11:22:26;;;;;;;0.63;0.63;;;;;;;21.85;56.16;98985.22;4935851;29;20142;-70
2022/05/24 11:25:02;;;;;;;0.57;0.57;;;;;;;21.96;56.41;98982.81;4935818;29;20060;-69
2022/05/24 11:27:34;;;;;;;0.55;0.55;;;;;;;22.09;56.36;98978.59;4937315;29;20492;-68
2022/05/24 11:30:12;;;;;;;1.42;0.98;;;;;;;22.23;55.99;98981.22;4935754;29;20084;-66
2022/05/24 11:32:45;;;;;;;1.38;0.90;;;;;;;22.36;56.53;98981.31;4936766;29;20056;-70
2022/05/24 11:35:27;;;;;;;0.88;0.85;;;;;;;22.35;57.53;98964.88;4935733;29;20071;-67
2022/05/24 11:38:10;;;;;;;0.70;0.70;;;;;;;22.70;58.12;98985.38;4936396;29;20138;-67
2022/05/24 11:40:56;;;;;;;0.75;0.70;;;;;;;22.93;56.87;98976.97;4935659;29;20047;-69
2022/05/24 11:43:46;;;;;;;0.70;0.70;;;;;;;23.03;56.63;98972.88;4936189;29;20051;-69
2022/05/24 11:46:44;;;;;;;0.60;0.60;;;;;;;23.11;56.00;98986.22;4936039;29;20059;-67
2022/05/24 11:49:44;;;;;;;1.15;1.05;;;;;;;22.93;54.36;98988.22;4935624;29;20114;-69
2022/05/24 11:52:40;;;;;;;0.60;0.60;;;;;;;22.76;54.52;98984.97;4935669;29;20502;-67
2022/05/24 11:55:09;;;;;;;1.00;0.80;;;;;;;22.46;54.41;98972.03;4928239;29;20059;-67
2022/05/24 11:57:43;;;;;;;;;;;;;;;22.33;54.71;98969.34;4937098;29;20067;-67
2022/05/24 12:00:13;;;;;;;0.70;0.70;;;;;;;22.41;55.28;98969.69;4935584;29;19923;-68
2022/05/24 12:08:26;;;;;;;0.63;0.63;;;;;;;21.97;54.70;98958.53;4950730;29;20055;-67
2022/05/24 12:11:15;;;;;;;0.43;0.43;;;;;;;21.84;54.59;98954.91;4935698;29;20399;-67
2022/05/24 12:14:10;;;;;;;0.80;0.80;;;;;;;21.57;55.05;98938.34;4935464;29;20062;-67
2022/05/24 12:16:45;;;;;;;0.93;0.82;;;;;;;21.69;55.70;98954.03;4936115;29;20056;-67
2022/05/24 12:19:41;;;;;;;1.40;1.02;;;;;;;21.72;55.57;98963.41;4935922;29;20094;-67
2022/05/24 12:22:13;;;;;;;0.70;0.70;;;;;;;21.72;56.03;98958.22;4936054;29;20060;-67
2022/05/24 12:25:02;;;;;;;0.93;0.93;;;;;;;21.74;56.25;98962.41;4935050;29;20139;-67
2022/05/24 12:27:50;;;;;;;0.82;0.60;;;;;;;21.76;56.67;98957.13;4935947;29;20052;-67
2022/05/24 12:30:40;;;;;;;1.58;1.23;;;;;;;21.50;56.21;98943.03;4934879;29;20056;-67
2022/05/24 12:33:18;;;;;;;0.68;0.68;;;;;;;21.43;56.02;98946.09;4936040;29;20084;-67
2022/05/24 12:35:53;;;;;;;0.90;0.70;;;;;;;21.52;56.18;98950.75;4934866;29;20048;-68
2022/05/24 12:38:26;;;;;;;0.60;0.60;;;;;;;21.50;56.51;98944.81;4935698;29;20056;-67
2022/05/24 12:41:13;;;;;;;0.88;0.75;;;;;;;21.79;56.93;98933.56;4934736;29;20115;-67
2022/05/24 12:43:55;;;;;;;1.17;1.08;;;;;;;21.96;56.69;98926.50;4935851;29;20051;-67
2022/05/24 12:46:30;;;;;;;1.02;0.93;;;;;;;22.16;56.38;98927.06;4935507;29;20406;-67
2022/05/24 12:49:07;;;;;;;0.60;0.60;;;;;;;22.35;54.73;98931.06;4935400;29;20090;-67
2022/05/24 12:51:38;;;;;;;0.70;0.60;;;;;;;22.39;53.71;98935.16;4935548;29;20075;-67
2022/05/24 12:54:17;;;;;;;0.77;0.77;;;;;;;22.30;53.48;98935.72;4935197;29;20062;-68
2022/05/24 12:56:59;;;;;;;1.17;1.08;;;;;;;22.17;53.90;98929.56;4935762;29;20458;-66
2022/05/24 12:59:37;;;;;;;0.52;0.52;;;;;;;22.07;54.36;98940.63;4934765;29;20058;-67
2022/05/24 13:02:31;;;;;;;1.13;1.02;;;;;;;21.90;54.92;98932.06;4937230;29;20051;-66
2022/05/24 13:05:09;;;;;;;0.95;0.93;;;;;;;21.78;54.43;98926.72;4938289;29;20088;-66
2022/05/24 13:07:42;;;;;;;2.38;0.90;;;;;;;21.83;54.37;98935.06;4939611;29;20059;-68
2022/05/24 13:10:25;;;;;;;0.60;0.60;;;;;;;21.98;54.36;98935.03;4938360;29;20047;-67